sensor_id;sensor_type;location;lat;lon;timestamp;P1;durP1;ratioP1;P2;durP2;ratioP2
6344;SDS011;3205;42.666;23.264;2022-09-27T00:02:03;21.98;;;16.58;;
6344;SDS011;3205;42.666;23.264;2022-09-27T00:04:29;20.35;;;16.90;;
6344;SDS011;3205;42.666;23.264;2022-09-27T00:06:56;18.83;;;16.08;;
6344;SDS011;3205;42.666;23.264;2022-09-27T00:09:23;23.05;;;16.95;;
6344;SDS011;3205;42.666;23.264;2022-09-27T00:11:50;24.40;;;16.70;;
6344;SDS011;3205;42.666;23.264;2022-09-27T00:14:16;19.60;;;16.58;;
6344;SDS011;3205;42.666;23.264;2022-09-27T00:16:43;23.15;;;17.55;;
6344;SDS011;3205;42.666;23.264;2022-09-27T00:19:12;21.70;;;17.00;;
6344;SDS011;3205;42.666;23.264;2022-09-27T00:21:41;21.48;;;16.50;;
6344;SDS011;3205;42.666;23.264;2022-09-27T00:24:10;19.40;;;15.80;;
6344;SDS011;3205;42.666;23.264;2022-09-27T00:26:38;18.33;;;16.25;;
6344;SDS011;3205;42.666;23.264;2022-09-27T00:29:05;33.78;;;17.05;;
6344;SDS011;3205;42.666;23.264;2022-09-27T00:31:31;21.35;;;14.93;;
6344;SDS011;3205;42.666;23.264;2022-09-27T00:34:00;18.73;;;15.07;;
6344;SDS011;3205;42.666;23.264;2022-09-27T00:36:29;20.27;;;15.68;;
6344;SDS011;3205;42.666;23.264;2022-09-27T00:38:57;26.80;;;16.05;;
6344;SDS011;3205;42.666;23.264;2022-09-27T00:41:25;18.40;;;15.70;;
6344;SDS011;3205;42.666;23.264;2022-09-27T00:43:55;22.52;;;14.77;;
6344;SDS011;3205;42.666;23.264;2022-09-27T00:46:25;17.63;;;14.00;;
6344;SDS011;3205;42.666;23.264;2022-09-27T00:49:03;20.50;;;14.52;;
6344;SDS011;3205;42.666;23.264;2022-09-27T00:51:37;20.00;;;15.57;;
6344;SDS011;3205;42.666;23.264;2022-09-27T00:54:07;21.10;;;14.05;;
6344;SDS011;3205;42.666;23.264;2022-09-27T00:56:36;26.70;;;15.00;;
6344;SDS011;3205;42.666;23.264;2022-09-27T00:59:05;20.88;;;14.50;;
6344;SDS011;3205;42.666;23.264;2022-09-27T01:01:36;28.15;;;14.60;;
6344;SDS011;3205;42.666;23.264;2022-09-27T01:04:05;23.58;;;14.40;;
6344;SDS011;3205;42.666;23.264;2022-09-27T01:06:33;47.20;;;15.48;;
6344;SDS011;3205;42.666;23.264;2022-09-27T01:09:02;42.97;;;14.68;;
6344;SDS011;3205;42.666;23.264;2022-09-27T01:11:34;40.20;;;15.00;;
6344;SDS011;3205;42.666;23.264;2022-09-27T01:14:17;2.47;;;1.75;;
6344;SDS011;3205;42.666;23.264;2022-09-27T01:16:56;0.00;;;0.00;;
6344;SDS011;3205;42.666;23.264;2022-09-27T01:19:46;0.00;;;0.00;;
6344;SDS011;3205;42.666;23.264;2022-09-27T01:22:36;0.33;;;0.33;;
6344;SDS011;3205;42.666;23.264;2022-09-27T01:25:21;0.10;;;0.10;;
6344;SDS011;3205;42.666;23.264;2022-09-27T01:31:01;0.50;;;0.50;;
6344;SDS011;3205;42.666;23.264;2022-09-27T01:33:39;0.00;;;0.00;;
6344;SDS011;3205;42.666;23.264;2022-09-27T01:36:16;0.00;;;0.00;;
6344;SDS011;3205;42.666;23.264;2022-09-27T01:38:53;0.10;;;0.10;;
6344;SDS011;3205;42.666;23.264;2022-09-27T01:41:32;0.00;;;0.00;;
6344;SDS011;3205;42.666;23.264;2022-09-27T01:44:04;0.17;;;0.17;;
6344;SDS011;3205;42.666;23.264;2022-09-27T01:46:36;0.65;;;0.65;;
6344;SDS011;3205;42.666;23.264;2022-09-27T01:49:07;0.00;;;0.00;;
6344;SDS011;3205;42.666;23.264;2022-09-27T01:51:38;0.08;;;0.08;;
6344;SDS011;3205;42.666;23.264;2022-09-27T01:54:11;0.00;;;0.00;;
6344;SDS011;3205;42.666;23.264;2022-09-27T01:56:43;0.10;;;0.10;;
6344;SDS011;3205;42.666;23.264;2022-09-27T01:59:14;0.10;;;0.10;;
6344;SDS011;3205;42.666;23.264;2022-09-27T02:01:47;0.10;;;0.10;;
6344;SDS011;3205;42.666;23.264;2022-09-27T02:04:18;0.10;;;0.10;;
6344;SDS011;3205;42.666;23.264;2022-09-27T02:06:55;0.10;;;0.10;;
6344;SDS011;3205;42.666;23.264;2022-09-27T02:09:29;0.00;;;0.00;;
6344;SDS011;3205;42.666;23.264;2022-09-27T02:11:59;0.10;;;0.10;;
6344;SDS011;3205;42.666;23.264;2022-09-27T02:14:30;0.45;;;0.45;;
6344;SDS011;3205;42.666;23.264;2022-09-27T02:17:06;0.10;;;0.10;;
6344;SDS011;3205;42.666;23.264;2022-09-27T02:19:37;0.10;;;0.10;;
6344;SDS011;3205;42.666;23.264;2022-09-27T02:22:10;0.00;;;0.00;;
6344;SDS011;3205;42.666;23.264;2022-09-27T02:24:43;0.00;;;0.00;;
6344;SDS011;3205;42.666;23.264;2022-09-27T02:27:16;0.10;;;0.10;;
6344;SDS011;3205;42.666;23.264;2022-09-27T02:29:51;0.00;;;0.00;;
6344;SDS011;3205;42.666;23.264;2022-09-27T02:32:25;0.55;;;0.55;;
6344;SDS011;3205;42.666;23.264;2022-09-27T02:34:52;0.00;;;0.00;;
6344;SDS011;3205;42.666;23.264;2022-09-27T02:37:21;0.30;;;0.30;;
6344;SDS011;3205;42.666;23.264;2022-09-27T02:39:48;0.10;;;0.10;;
6344;SDS011;3205;42.666;23.264;2022-09-27T02:42:15;0.10;;;0.10;;
6344;SDS011;3205;42.666;23.264;2022-09-27T02:44:42;0.10;;;0.10;;
6344;SDS011;3205;42.666;23.264;2022-09-27T02:47:16;0.10;;;0.10;;
6344;SDS011;3205;42.666;23.264;2022-09-27T02:49:58;0.00;;;0.00;;
6344;SDS011;3205;42.666;23.264;2022-09-27T02:52:41;18.55;;;11.60;;
6344;SDS011;3205;42.666;23.264;2022-09-27T02:55:22;16.33;;;13.07;;
6344;SDS011;3205;42.666;23.264;2022-09-27T02:57:56;22.58;;;14.27;;
6344;SDS011;3205;42.666;23.264;2022-09-27T03:00:36;19.88;;;14.10;;
6344;SDS011;3205;42.666;23.264;2022-09-27T03:03:12;23.45;;;13.98;;
6344;SDS011;3205;42.666;23.264;2022-09-27T03:05:46;18.80;;;14.05;;
6344;SDS011;3205;42.666;23.264;2022-09-27T03:08:17;21.88;;;15.27;;
6344;SDS011;3205;42.666;23.264;2022-09-27T03:10:44;24.45;;;15.95;;
6344;SDS011;3205;42.666;23.264;2022-09-27T03:13:12;19.98;;;15.95;;
6344;SDS011;3205;42.666;23.264;2022-09-27T03:15:39;25.50;;;17.05;;
6344;SDS011;3205;42.666;23.264;2022-09-27T03:18:06;27.73;;;18.40;;
6344;SDS011;3205;42.666;23.264;2022-09-27T03:20:34;25.75;;;17.35;;
6344;SDS011;3205;42.666;23.264;2022-09-27T03:23:01;29.67;;;19.45;;
6344;SDS011;3205;42.666;23.264;2022-09-27T03:25:28;26.92;;;18.42;;
6344;SDS011;3205;42.666;23.264;2022-09-27T03:27:54;31.60;;;19.75;;
6344;SDS011;3205;42.666;23.264;2022-09-27T03:30:21;37.80;;;21.13;;
6344;SDS011;3205;42.666;23.264;2022-09-27T03:32:48;30.83;;;20.05;;
6344;SDS011;3205;42.666;23.264;2022-09-27T03:35:15;30.85;;;19.65;;
6344;SDS011;3205;42.666;23.264;2022-09-27T03:37:43;29.35;;;20.23;;
6344;SDS011;3205;42.666;23.264;2022-09-27T03:40:11;29.58;;;20.13;;
6344;SDS011;3205;42.666;23.264;2022-09-27T03:42:38;33.47;;;20.58;;
6344;SDS011;3205;42.666;23.264;2022-09-27T03:45:05;28.88;;;19.73;;
6344;SDS011;3205;42.666;23.264;2022-09-27T03:47:33;36.53;;;21.60;;
6344;SDS011;3205;42.666;23.264;2022-09-27T03:49:59;34.03;;;21.38;;
6344;SDS011;3205;42.666;23.264;2022-09-27T03:52:26;32.83;;;22.40;;
6344;SDS011;3205;42.666;23.264;2022-09-27T03:54:55;38.47;;;23.05;;
6344;SDS011;3205;42.666;23.264;2022-09-27T03:57:21;42.38;;;22.98;;
6344;SDS011;3205;42.666;23.264;2022-09-27T03:59:48;58.35;;;23.45;;
6344;SDS011;3205;42.666;23.264;2022-09-27T04:02:15;35.03;;;23.13;;
6344;SDS011;3205;42.666;23.264;2022-09-27T04:04:42;37.17;;;24.20;;
6344;SDS011;3205;42.666;23.264;2022-09-27T04:07:09;41.10;;;24.13;;
6344;SDS011;3205;42.666;23.264;2022-09-27T04:09:36;36.75;;;24.00;;
6344;SDS011;3205;42.666;23.264;2022-09-27T04:12:04;35.13;;;23.00;;
6344;SDS011;3205;42.666;23.264;2022-09-27T04:14:31;38.78;;;23.92;;
6344;SDS011;3205;42.666;23.264;2022-09-27T04:16:58;40.25;;;25.85;;
6344;SDS011;3205;42.666;23.264;2022-09-27T04:19:25;49.60;;;24.73;;
6344;SDS011;3205;42.666;23.264;2022-09-27T04:21:51;42.90;;;25.15;;
6344;SDS011;3205;42.666;23.264;2022-09-27T04:24:18;39.42;;;24.83;;
6344;SDS011;3205;42.666;23.264;2022-09-27T04:26:45;41.28;;;26.38;;
6344;SDS011;3205;42.666;23.264;2022-09-27T04:29:14;44.25;;;27.38;;
6344;SDS011;3205;42.666;23.264;2022-09-27T04:31:41;43.95;;;27.42;;
6344;SDS011;3205;42.666;23.264;2022-09-27T04:34:09;44.75;;;26.85;;
6344;SDS011;3205;42.666;23.264;2022-09-27T04:36:36;49.25;;;26.58;;
6344;SDS011;3205;42.666;23.264;2022-09-27T04:39:03;43.92;;;27.55;;
6344;SDS011;3205;42.666;23.264;2022-09-27T04:41:31;45.80;;;27.17;;
6344;SDS011;3205;42.666;23.264;2022-09-27T04:44:00;47.88;;;27.00;;
6344;SDS011;3205;42.666;23.264;2022-09-27T04:46:29;51.05;;;26.67;;
6344;SDS011;3205;42.666;23.264;2022-09-27T04:48:56;54.20;;;31.23;;
6344;SDS011;3205;42.666;23.264;2022-09-27T04:51:23;52.03;;;33.90;;
6344;SDS011;3205;42.666;23.264;2022-09-27T04:53:50;54.20;;;31.08;;
6344;SDS011;3205;42.666;23.264;2022-09-27T04:56:17;49.67;;;28.80;;
6344;SDS011;3205;42.666;23.264;2022-09-27T04:58:44;42.72;;;27.55;;
6344;SDS011;3205;42.666;23.264;2022-09-27T05:01:11;41.55;;;25.88;;
6344;SDS011;3205;42.666;23.264;2022-09-27T05:03:39;38.95;;;26.23;;
6344;SDS011;3205;42.666;23.264;2022-09-27T05:06:06;39.60;;;26.38;;
6344;SDS011;3205;42.666;23.264;2022-09-27T05:08:33;44.10;;;26.67;;
6344;SDS011;3205;42.666;23.264;2022-09-27T05:10:59;41.78;;;28.77;;
6344;SDS011;3205;42.666;23.264;2022-09-27T05:13:26;47.58;;;26.92;;
6344;SDS011;3205;42.666;23.264;2022-09-27T05:15:53;45.55;;;28.63;;
6344;SDS011;3205;42.666;23.264;2022-09-27T05:18:20;56.13;;;30.35;;
6344;SDS011;3205;42.666;23.264;2022-09-27T05:20:48;45.35;;;28.17;;
6344;SDS011;3205;42.666;23.264;2022-09-27T05:23:15;47.63;;;26.45;;
6344;SDS011;3205;42.666;23.264;2022-09-27T05:25:41;43.08;;;29.15;;
6344;SDS011;3205;42.666;23.264;2022-09-27T05:28:08;46.78;;;28.48;;
6344;SDS011;3205;42.666;23.264;2022-09-27T05:30:35;39.15;;;27.95;;
6344;SDS011;3205;42.666;23.264;2022-09-27T05:33:02;43.95;;;27.75;;
6344;SDS011;3205;42.666;23.264;2022-09-27T05:35:29;44.78;;;28.10;;
6344;SDS011;3205;42.666;23.264;2022-09-27T05:37:59;42.20;;;28.30;;
6344;SDS011;3205;42.666;23.264;2022-09-27T05:40:26;42.30;;;26.35;;
6344;SDS011;3205;42.666;23.264;2022-09-27T05:42:54;46.55;;;27.98;;
6344;SDS011;3205;42.666;23.264;2022-09-27T05:45:21;41.17;;;27.52;;
6344;SDS011;3205;42.666;23.264;2022-09-27T05:47:53;44.10;;;27.88;;
6344;SDS011;3205;42.666;23.264;2022-09-27T05:50:21;39.85;;;27.17;;
6344;SDS011;3205;42.666;23.264;2022-09-27T05:52:48;42.67;;;27.13;;
6344;SDS011;3205;42.666;23.264;2022-09-27T05:55:16;42.53;;;28.50;;
6344;SDS011;3205;42.666;23.264;2022-09-27T05:57:52;44.00;;;29.02;;
6344;SDS011;3205;42.666;23.264;2022-09-27T06:00:20;43.25;;;27.33;;
6344;SDS011;3205;42.666;23.264;2022-09-27T06:02:51;48.15;;;27.08;;
6344;SDS011;3205;42.666;23.264;2022-09-27T06:05:20;53.83;;;33.75;;
6344;SDS011;3205;42.666;23.264;2022-09-27T06:07:47;56.58;;;35.05;;
6344;SDS011;3205;42.666;23.264;2022-09-27T06:10:14;47.42;;;30.08;;
6344;SDS011;3205;42.666;23.264;2022-09-27T06:12:43;49.90;;;31.15;;
6344;SDS011;3205;42.666;23.264;2022-09-27T06:15:10;50.08;;;29.05;;
6344;SDS011;3205;42.666;23.264;2022-09-27T06:17:38;50.75;;;30.65;;
6344;SDS011;3205;42.666;23.264;2022-09-27T06:20:05;46.50;;;29.27;;
6344;SDS011;3205;42.666;23.264;2022-09-27T06:22:33;58.50;;;31.40;;
6344;SDS011;3205;42.666;23.264;2022-09-27T06:25:01;49.25;;;30.52;;
6344;SDS011;3205;42.666;23.264;2022-09-27T06:27:29;48.92;;;30.50;;
6344;SDS011;3205;42.666;23.264;2022-09-27T06:29:56;48.85;;;30.02;;
6344;SDS011;3205;42.666;23.264;2022-09-27T06:32:23;46.42;;;28.40;;
6344;SDS011;3205;42.666;23.264;2022-09-27T06:34:50;51.95;;;31.10;;
6344;SDS011;3205;42.666;23.264;2022-09-27T06:37:17;38.63;;;26.77;;
6344;SDS011;3205;42.666;23.264;2022-09-27T06:39:44;46.55;;;28.85;;
6344;SDS011;3205;42.666;23.264;2022-09-27T06:42:13;47.83;;;29.40;;
6344;SDS011;3205;42.666;23.264;2022-09-27T06:44:43;41.83;;;27.55;;
6344;SDS011;3205;42.666;23.264;2022-09-27T06:47:11;48.42;;;28.08;;
6344;SDS011;3205;42.666;23.264;2022-09-27T06:49:38;43.95;;;28.65;;
6344;SDS011;3205;42.666;23.264;2022-09-27T06:52:05;44.75;;;28.02;;
6344;SDS011;3205;42.666;23.264;2022-09-27T06:54:32;45.83;;;30.75;;
6344;SDS011;3205;42.666;23.264;2022-09-27T06:56:59;46.40;;;28.27;;
6344;SDS011;3205;42.666;23.264;2022-09-27T06:59:26;37.95;;;26.02;;
6344;SDS011;3205;42.666;23.264;2022-09-27T07:02:23;40.30;;;26.92;;
6344;SDS011;3205;42.666;23.264;2022-09-27T07:04:51;40.00;;;27.95;;
6344;SDS011;3205;42.666;23.264;2022-09-27T07:07:18;41.67;;;28.60;;
6344;SDS011;3205;42.666;23.264;2022-09-27T07:10:03;54.30;;;31.95;;
6344;SDS011;3205;42.666;23.264;2022-09-27T07:12:30;53.58;;;34.92;;
6344;SDS011;3205;42.666;23.264;2022-09-27T07:14:57;55.40;;;38.80;;
6344;SDS011;3205;42.666;23.264;2022-09-27T07:17:26;46.55;;;28.17;;
6344;SDS011;3205;42.666;23.264;2022-09-27T07:19:54;60.38;;;39.55;;
6344;SDS011;3205;42.666;23.264;2022-09-27T07:22:21;49.38;;;32.65;;
6344;SDS011;3205;42.666;23.264;2022-09-27T07:24:48;40.72;;;28.58;;
6344;SDS011;3205;42.666;23.264;2022-09-27T07:27:14;48.83;;;29.08;;
6344;SDS011;3205;42.666;23.264;2022-09-27T07:29:42;43.72;;;29.05;;
6344;SDS011;3205;42.666;23.264;2022-09-27T07:32:09;43.47;;;29.98;;
6344;SDS011;3205;42.666;23.264;2022-09-27T07:34:37;52.33;;;30.10;;
6344;SDS011;3205;42.666;23.264;2022-09-27T07:37:03;44.83;;;29.50;;
6344;SDS011;3205;42.666;23.264;2022-09-27T07:39:30;47.10;;;30.52;;
6344;SDS011;3205;42.666;23.264;2022-09-27T07:41:57;51.85;;;33.67;;
6344;SDS011;3205;42.666;23.264;2022-09-27T07:44:24;52.60;;;36.10;;
6344;SDS011;3205;42.666;23.264;2022-09-27T07:46:51;55.65;;;35.75;;
6344;SDS011;3205;42.666;23.264;2022-09-27T07:49:17;54.25;;;33.50;;
6344;SDS011;3205;42.666;23.264;2022-09-27T07:51:45;50.97;;;35.10;;
6344;SDS011;3205;42.666;23.264;2022-09-27T07:54:12;55.83;;;39.50;;
6344;SDS011;3205;42.666;23.264;2022-09-27T07:56:39;61.20;;;38.08;;
6344;SDS011;3205;42.666;23.264;2022-09-27T07:59:06;52.67;;;35.47;;
6344;SDS011;3205;42.666;23.264;2022-09-27T08:01:32;45.80;;;30.67;;
6344;SDS011;3205;42.666;23.264;2022-09-27T08:03:59;52.33;;;31.42;;
6344;SDS011;3205;42.666;23.264;2022-09-27T08:06:27;68.90;;;31.40;;
6344;SDS011;3205;42.666;23.264;2022-09-27T08:08:56;47.17;;;30.33;;
6344;SDS011;3205;42.666;23.264;2022-09-27T08:11:23;48.20;;;31.83;;
6344;SDS011;3205;42.666;23.264;2022-09-27T08:13:51;47.78;;;31.83;;
6344;SDS011;3205;42.666;23.264;2022-09-27T08:16:18;53.38;;;32.28;;
6344;SDS011;3205;42.666;23.264;2022-09-27T08:18:46;49.00;;;32.65;;
6344;SDS011;3205;42.666;23.264;2022-09-27T08:21:12;43.40;;;30.08;;
6344;SDS011;3205;42.666;23.264;2022-09-27T08:23:40;44.97;;;29.60;;
6344;SDS011;3205;42.666;23.264;2022-09-27T08:26:08;41.75;;;30.92;;
6344;SDS011;3205;42.666;23.264;2022-09-27T08:28:35;48.00;;;31.15;;
6344;SDS011;3205;42.666;23.264;2022-09-27T08:31:01;41.97;;;30.75;;
6344;SDS011;3205;42.666;23.264;2022-09-27T08:33:28;44.50;;;31.75;;
6344;SDS011;3205;42.666;23.264;2022-09-27T08:35:55;46.40;;;34.00;;
6344;SDS011;3205;42.666;23.264;2022-09-27T08:38:22;56.33;;;37.80;;
6344;SDS011;3205;42.666;23.264;2022-09-27T08:40:50;53.10;;;38.97;;
6344;SDS011;3205;42.666;23.264;2022-09-27T08:43:25;52.40;;;36.90;;
6344;SDS011;3205;42.666;23.264;2022-09-27T08:46:03;47.30;;;36.60;;
6344;SDS011;3205;42.666;23.264;2022-09-27T08:48:46;56.65;;;37.55;;
6344;SDS011;3205;42.666;23.264;2022-09-27T08:51:17;53.60;;;37.60;;
6344;SDS011;3205;42.666;23.264;2022-09-27T08:53:49;41.05;;;33.72;;
6344;SDS011;3205;42.666;23.264;2022-09-27T08:56:21;44.80;;;35.80;;
6344;SDS011;3205;42.666;23.264;2022-09-27T08:58:50;38.17;;;31.83;;
6344;SDS011;3205;42.666;23.264;2022-09-27T09:01:24;36.00;;;29.88;;
6344;SDS011;3205;42.666;23.264;2022-09-27T09:03:52;34.95;;;27.88;;
6344;SDS011;3205;42.666;23.264;2022-09-27T09:06:23;35.08;;;28.70;;
6344;SDS011;3205;42.666;23.264;2022-09-27T09:08:59;40.30;;;31.50;;
6344;SDS011;3205;42.666;23.264;2022-09-27T09:11:40;28.38;;;25.33;;
6344;SDS011;3205;42.666;23.264;2022-09-27T09:14:43;27.27;;;24.48;;
6344;SDS011;3205;42.666;23.264;2022-09-27T09:17:23;27.52;;;23.30;;
6344;SDS011;3205;42.666;23.264;2022-09-27T09:20:02;22.42;;;19.42;;
6344;SDS011;3205;42.666;23.264;2022-09-27T09:22:45;17.65;;;15.82;;
6344;SDS011;3205;42.666;23.264;2022-09-27T09:25:27;18.83;;;15.95;;
6344;SDS011;3205;42.666;23.264;2022-09-27T09:28:03;16.98;;;15.23;;
6344;SDS011;3205;42.666;23.264;2022-09-27T09:30:45;17.02;;;15.20;;
6344;SDS011;3205;42.666;23.264;2022-09-27T09:33:22;20.00;;;15.20;;
6344;SDS011;3205;42.666;23.264;2022-09-27T09:35:53;15.13;;;13.57;;
6344;SDS011;3205;42.666;23.264;2022-09-27T09:38:26;17.10;;;14.13;;
6344;SDS011;3205;42.666;23.264;2022-09-27T09:40:59;15.88;;;14.27;;
6344;SDS011;3205;42.666;23.264;2022-09-27T09:43:31;15.82;;;14.15;;
6344;SDS011;3205;42.666;23.264;2022-09-27T09:46:06;18.45;;;14.35;;
6344;SDS011;3205;42.666;23.264;2022-09-27T09:48:38;16.08;;;13.10;;
6344;SDS011;3205;42.666;23.264;2022-09-27T09:51:11;15.00;;;13.18;;
6344;SDS011;3205;42.666;23.264;2022-09-27T09:53:48;14.25;;;12.55;;
6344;SDS011;3205;42.666;23.264;2022-09-27T09:56:21;15.48;;;13.57;;
6344;SDS011;3205;42.666;23.264;2022-09-27T09:58:52;14.98;;;12.77;;
6344;SDS011;3205;42.666;23.264;2022-09-27T10:01:24;20.63;;;15.20;;
6344;SDS011;3205;42.666;23.264;2022-09-27T10:03:53;14.73;;;13.07;;
6344;SDS011;3205;42.666;23.264;2022-09-27T10:06:20;16.08;;;13.55;;
6344;SDS011;3205;42.666;23.264;2022-09-27T10:08:48;14.70;;;13.20;;
6344;SDS011;3205;42.666;23.264;2022-09-27T10:11:19;16.15;;;13.70;;
6344;SDS011;3205;42.666;23.264;2022-09-27T10:13:49;16.05;;;14.07;;
6344;SDS011;3205;42.666;23.264;2022-09-27T10:16:17;16.48;;;13.93;;
6344;SDS011;3205;42.666;23.264;2022-09-27T10:18:47;19.98;;;14.57;;
